createdAt,value
2023-03-21T00:01:03.852Z,72.05
2023-03-21T00:03:34.455Z,69.72
2023-03-21T00:06:09.540Z,75.78
2023-03-21T00:08:40.050Z,79.05
2023-03-21T00:11:10.525Z,80.25
2023-03-21T00:13:44.106Z,80.75
2023-03-21T00:16:22.292Z,79.82
2023-03-21T00:18:59.906Z,76.93
2023-03-21T00:22:05.471Z,75.57
2023-03-21T00:24:22.365Z,75.28
2023-03-21T00:26:51.321Z,77.13
2023-03-21T00:29:20.364Z,78.63
2023-03-21T00:31:48.534Z,72.53
2023-03-21T00:34:20.141Z,78.78
2023-03-21T00:36:55.880Z,81.30
2023-03-21T00:39:23.898Z,82.00
2023-03-21T00:41:53.113Z,78.13
2023-03-21T00:44:23.546Z,76.90
2023-03-21T00:47:06.152Z,77.70
2023-03-21T00:49:35.796Z,76.82
2023-03-21T00:52:38.121Z,83.10
2023-03-21T00:54:55.778Z,76.78
2023-03-21T00:57:37.473Z,78.82
2023-03-21T01:00:10.871Z,80.38
2023-03-21T01:03:02.616Z,87.88
2023-03-21T01:05:58.600Z,84.90
2023-03-21T01:08:35.154Z,78.47
2023-03-21T01:11:14.226Z,97.03
2023-03-21T01:13:52.944Z,82.07
2023-03-21T01:16:25.673Z,79.72
2023-03-21T01:18:54.057Z,78.82
2023-03-21T01:21:23.236Z,77.82
2023-03-21T01:23:51.659Z,86.47
2023-03-21T01:26:19.979Z,83.50
2023-03-21T01:28:47.938Z,83.00
2023-03-21T01:31:17.643Z,86.93
2023-03-21T01:33:46.412Z,92.03
2023-03-21T01:36:24.898Z,92.53
2023-03-21T01:38:57.144Z,90.22
2023-03-21T01:41:43.806Z,87.72
2023-03-21T01:44:20.217Z,79.97
2023-03-21T01:47:11.386Z,82.70
2023-03-21T01:49:46.036Z,88.10
2023-03-21T01:52:39.571Z,84.80
2023-03-21T01:55:28.133Z,84.63
2023-03-21T01:58:30.131Z,91.13
2023-03-21T02:01:07.248Z,86.30
2023-03-21T02:03:52.336Z,89.70
2023-03-21T02:06:36.880Z,85.57
2023-03-21T02:09:24.128Z,83.03
2023-03-21T02:11:54.464Z,92.38
2023-03-21T02:14:29.292Z,85.05
2023-03-21T02:17:48.930Z,87.72
2023-03-21T02:20:45.377Z,82.53
2023-03-21T02:23:54.460Z,78.63
2023-03-21T02:26:41.941Z,84.13
2023-03-21T02:29:39.409Z,81.22
2023-03-21T02:32:41.071Z,75.45
2023-03-21T02:35:29.887Z,77.88
2023-03-21T02:38:08.192Z,79.80
2023-03-21T02:40:49.708Z,83.43
2023-03-21T02:46:43.931Z,79.22
2023-03-21T02:49:18.739Z,81.38
2023-03-21T02:51:49.952Z,78.55
2023-03-21T02:54:35.085Z,77.82
2023-03-21T02:59:51.611Z,79.80
2023-03-21T03:02:28.967Z,79.60
2023-03-21T03:04:58.810Z,77.80
2023-03-21T03:07:52.445Z,67.63
2023-03-21T03:10:44.778Z,77.45
2023-03-21T03:13:50.484Z,75.15
2023-03-21T03:16:58.740Z,73.82
2023-03-21T03:19:44.709Z,72.10
2023-03-21T03:22:38.734Z,79.23
2023-03-21T03:25:23.074Z,73.00
2023-03-21T03:27:58.232Z,71.45
2023-03-21T03:30:39.252Z,73.45
2023-03-21T03:33:11.079Z,71.72
2023-03-21T03:35:39.183Z,72.63
2023-03-21T03:38:09.342Z,74.15
2023-03-21T03:40:44.407Z,83.45
2023-03-21T03:43:51.107Z,64.85
2023-03-21T03:46:47.444Z,73.90
2023-03-21T03:49:24.288Z,73.68
2023-03-21T03:52:00.466Z,74.78
2023-03-21T03:54:42.553Z,72.97
2023-03-21T03:57:15.038Z,64.15
2023-03-21T03:59:46.462Z,69.25
2023-03-21T04:02:43.746Z,73.82
2023-03-21T04:05:12.673Z,72.85
2023-03-21T04:07:41.448Z,68.28
2023-03-21T04:10:10.799Z,70.93
2023-03-21T04:12:42.639Z,71.82
2023-03-21T04:15:25.842Z,66.60
2023-03-21T04:18:00.694Z,67.80
2023-03-21T04:20:36.526Z,72.18
2023-03-21T04:23:12.887Z,67.50
2023-03-21T04:25:55.894Z,68.70
2023-03-21T04:28:30.855Z,67.35
2023-03-21T04:31:24.133Z,65.45
2023-03-21T04:33:56.116Z,65.45
2023-03-21T04:36:27.763Z,67.65
2023-03-21T04:39:01.084Z,70.05
2023-03-21T04:41:31.100Z,71.33
2023-03-21T04:43:59.163Z,69.53
2023-03-21T04:46:27.317Z,70.07
2023-03-21T04:48:56.358Z,60.92
2023-03-21T04:51:25.197Z,61.35
2023-03-21T04:53:57.707Z,62.15
2023-03-21T04:56:34.217Z,60.17
2023-03-21T04:59:15.378Z,66.35
2023-03-21T05:01:45.016Z,70.15
2023-03-21T05:04:14.863Z,70.95
2023-03-21T05:06:44.104Z,72.22
2023-03-21T05:09:13.526Z,60.83
2023-03-21T05:11:42.757Z,67.40
2023-03-21T05:16:53.482Z,63.88
2023-03-21T05:19:35.517Z,60.33
2023-03-21T05:22:12.312Z,63.78
2023-03-21T05:24:42.240Z,62.90
2023-03-21T05:27:34.269Z,55.42
2023-03-21T05:30:10.777Z,56.45
2023-03-21T05:32:39.851Z,52.45
2023-03-21T05:35:11.655Z,49.60
2023-03-21T05:37:39.765Z,50.22
2023-03-21T05:40:10.291Z,44.45
2023-03-21T05:42:42.796Z,45.50
2023-03-21T05:45:18.813Z,46.00
2023-03-21T05:47:47.440Z,45.05
2023-03-21T05:50:16.548Z,51.72
2023-03-21T05:52:52.188Z,53.65
2023-03-21T05:55:21.778Z,50.50
2023-03-21T05:57:50.419Z,46.97
2023-03-21T06:00:25.134Z,46.20
2023-03-21T06:03:14.071Z,46.20
2023-03-21T06:06:09.324Z,43.83
2023-03-21T06:08:42.298Z,47.47
2023-03-21T06:11:31.488Z,45.00
2023-03-21T06:14:17.158Z,42.22
2023-03-21T06:16:51.097Z,42.53
2023-03-21T06:19:19.491Z,47.92
2023-03-21T06:22:07.854Z,41.33
2023-03-21T06:27:07.566Z,41.85
2023-03-21T06:32:17.776Z,49.67
2023-03-21T06:34:47.444Z,46.00
2023-03-21T06:37:17.767Z,42.45
2023-03-21T06:39:47.117Z,39.05
2023-03-21T06:42:16.031Z,36.47
2023-03-21T06:44:44.642Z,40.90
2023-03-21T06:47:16.418Z,48.83
2023-03-21T06:49:47.057Z,38.90
2023-03-21T06:52:15.194Z,38.72
2023-03-21T06:54:44.419Z,43.30
2023-03-21T06:57:15.950Z,39.67
2023-03-21T06:59:44.071Z,43.58
2023-03-21T07:02:17.857Z,43.90
2023-03-21T07:04:58.838Z,50.27
2023-03-21T07:07:29.978Z,63.20
2023-03-21T07:09:58.711Z,47.70
2023-03-21T07:12:34.397Z,50.38
2023-03-21T07:15:22.180Z,40.88
2023-03-21T07:17:50.435Z,44.35
2023-03-21T07:20:18.633Z,52.00
2023-03-21T07:22:46.906Z,46.42
2023-03-21T07:25:17.646Z,45.05
2023-03-21T07:27:46.633Z,43.83
2023-03-21T07:30:15.020Z,53.13
2023-03-21T07:32:43.654Z,53.33
2023-03-21T07:35:14.999Z,48.70
2023-03-21T07:37:44.029Z,42.38
2023-03-21T07:40:17.765Z,50.08
2023-03-21T07:42:48.788Z,40.70
2023-03-21T07:45:25.485Z,38.58
2023-03-21T07:47:54.783Z,40.85
2023-03-21T07:50:25.880Z,32.83
2023-03-21T07:52:54.517Z,40.47
2023-03-21T07:55:23.525Z,35.85
2023-03-21T07:57:53.448Z,40.50
2023-03-21T08:00:25.652Z,37.78
2023-03-21T08:02:58.901Z,31.77
2023-03-21T08:05:39.849Z,40.45
2023-03-21T08:08:08.911Z,37.20
2023-03-21T08:10:37.914Z,38.67
2023-03-21T08:13:06.347Z,39.88
2023-03-21T08:15:34.456Z,44.40
2023-03-21T08:18:02.513Z,43.70
2023-03-21T08:20:31.299Z,40.00
2023-03-21T08:22:59.373Z,38.33
2023-03-21T08:25:27.877Z,41.33
2023-03-21T08:27:56.265Z,35.83
2023-03-21T08:30:29.245Z,37.38
2023-03-21T08:33:01.352Z,37.25
2023-03-21T08:35:31.797Z,41.33
2023-03-21T08:38:02.639Z,35.28
2023-03-21T08:40:33.773Z,40.70
2023-03-21T08:43:01.966Z,28.90
2023-03-21T08:45:30.977Z,35.25
2023-03-21T08:47:59.570Z,28.95
2023-03-21T08:50:29.729Z,31.60
2023-03-21T08:52:58.185Z,27.83
2023-03-21T08:55:26.664Z,27.33
2023-03-21T08:57:55.120Z,29.65
2023-03-21T09:00:24.092Z,28.52
2023-03-21T09:02:54.479Z,32.72
2023-03-21T09:05:26.453Z,35.85
2023-03-21T09:10:24.282Z,31.90
2023-03-21T09:12:55.184Z,29.67
2023-03-21T09:15:27.654Z,29.33
2023-03-21T09:17:58.652Z,29.63
2023-03-21T09:20:31.319Z,36.85
2023-03-21T09:23:01.249Z,30.25
2023-03-21T09:25:32.800Z,35.50
2023-03-21T09:28:02.128Z,31.48
2023-03-21T09:30:30.859Z,33.08
2023-03-21T09:33:06.668Z,33.53
2023-03-21T09:35:35.573Z,36.45
2023-03-21T09:38:05.709Z,37.08
2023-03-21T09:40:55.263Z,38.65
2023-03-21T09:43:38.973Z,35.50
2023-03-21T09:46:33.148Z,34.28
2023-03-21T09:49:10.028Z,39.65
2023-03-21T09:51:46.504Z,52.03
2023-03-21T09:54:39.568Z,45.08
2023-03-21T09:57:26.225Z,35.85
2023-03-21T09:59:57.926Z,37.75
2023-03-21T10:05:20.124Z,46.80
2023-03-21T10:08:23.357Z,39.45
2023-03-21T10:10:56.819Z,41.50
2023-03-21T10:13:35.856Z,34.05
2023-03-21T10:16:25.431Z,40.63
2023-03-21T10:18:55.900Z,40.80
2023-03-21T10:21:56.664Z,40.88
2023-03-21T10:26:57.377Z,39.17
2023-03-21T10:29:30.850Z,44.78
2023-03-21T10:31:59.476Z,50.00
2023-03-21T10:34:42.927Z,51.28
2023-03-21T10:37:13.551Z,46.00
2023-03-21T10:39:47.117Z,47.10
2023-03-21T10:42:26.223Z,46.45
2023-03-21T10:44:57.848Z,41.58
2023-03-21T10:50:14.243Z,40.00
2023-03-21T10:53:00.558Z,39.33
2023-03-21T10:55:33.263Z,40.00
2023-03-21T10:58:19.069Z,44.60
2023-03-21T11:03:08.638Z,40.63
2023-03-21T11:05:40.428Z,89.80
2023-03-21T11:11:12.682Z,30.75
2023-03-21T11:13:44.468Z,40.45
2023-03-21T11:16:44.809Z,38.75
2023-03-21T11:19:38.503Z,30.70
2023-03-21T11:22:08.650Z,31.77
2023-03-21T11:24:37.078Z,33.67
2023-03-21T11:27:09.245Z,36.88
2023-03-21T11:29:41.553Z,37.25
2023-03-21T11:32:36.204Z,36.85
2023-03-21T11:35:14.904Z,25.88
2023-03-21T11:37:53.610Z,29.98
2023-03-21T11:40:33.751Z,32.35
2023-03-21T11:43:27.804Z,28.83
2023-03-21T11:46:05.513Z,27.60
2023-03-21T11:48:47.449Z,29.27
2023-03-21T11:54:30.125Z,24.50
2023-03-21T11:57:22.989Z,21.67
2023-03-21T12:00:15.544Z,21.65
2023-03-21T12:03:38.197Z,22.42
2023-03-21T12:06:25.761Z,22.58
2023-03-21T12:09:26.807Z,23.63
2023-03-21T12:12:16.726Z,22.35
2023-03-21T12:15:18.898Z,23.33
2023-03-21T12:18:14.706Z,18.00
2023-03-21T12:21:04.153Z,23.67
2023-03-21T12:23:47.292Z,28.83
2023-03-21T12:26:33.218Z,24.17
2023-03-21T12:29:30.572Z,19.73
2023-03-21T12:32:30.713Z,20.77
2023-03-21T12:35:20.434Z,21.15
2023-03-21T12:38:24.624Z,19.40
2023-03-21T12:41:09.961Z,15.27
2023-03-21T12:44:16.730Z,19.30
2023-03-21T12:46:55.179Z,20.00
2023-03-21T12:49:38.738Z,20.42
2023-03-21T12:52:19.947Z,22.02
2023-03-21T12:55:17.961Z,19.38
2023-03-21T12:58:11.917Z,20.58
2023-03-21T13:00:45.036Z,22.73
2023-03-21T13:03:40.202Z,20.55
2023-03-21T13:06:18.352Z,23.70
2023-03-21T13:08:49.682Z,194.18
2023-03-21T13:11:25.461Z,17.27
2023-03-21T13:13:56.765Z,18.98
2023-03-21T13:17:02.453Z,20.05
2023-03-21T13:20:01.937Z,20.58
2023-03-21T13:22:31.772Z,24.75
2023-03-21T13:25:06.732Z,14.10
2023-03-21T13:27:39.436Z,19.95
2023-03-21T13:30:27.892Z,38.17
2023-03-21T13:33:10.874Z,387.23
2023-03-21T13:35:43.232Z,505.15
2023-03-21T13:38:23.438Z,13.82
2023-03-21T13:41:13.993Z,15.40
2023-03-21T13:44:01.976Z,12.57
2023-03-21T13:46:34.184Z,13.73
2023-03-21T13:49:09.667Z,14.18
2023-03-21T13:54:34.489Z,13.95
2023-03-21T13:57:06.592Z,12.00
2023-03-21T13:59:45.141Z,10.68
2023-03-21T14:02:25.405Z,11.95
2023-03-21T14:05:17.997Z,10.50
2023-03-21T14:07:54.729Z,12.32
2023-03-21T14:10:35.633Z,19.35
2023-03-21T14:13:08.165Z,18.42
2023-03-21T14:15:59.797Z,22.23
2023-03-21T14:18:52.427Z,22.90
2023-03-21T14:21:25.195Z,21.75
2023-03-21T14:24:11.731Z,21.73
2023-03-21T14:26:52.624Z,20.27
2023-03-21T14:29:34.773Z,19.90
2023-03-21T14:32:05.876Z,19.92
2023-03-21T14:34:36.293Z,22.52
2023-03-21T14:37:11.476Z,28.77
2023-03-21T14:39:39.790Z,471.58
2023-03-21T14:42:13.802Z,362.90
2023-03-21T14:44:55.570Z,539.08
2023-03-21T14:47:28.178Z,364.50
2023-03-21T14:49:57.683Z,394.25
2023-03-21T14:52:32.415Z,437.25
2023-03-21T14:55:14.934Z,327.15
2023-03-21T14:57:43.444Z,361.55
2023-03-21T15:00:26.695Z,363.27
2023-03-21T15:02:58.864Z,330.10
2023-03-21T15:05:33.172Z,334.33
2023-03-21T15:08:14.323Z,312.88
2023-03-21T15:10:43.401Z,312.02
2023-03-21T15:13:18.836Z,316.02
2023-03-21T15:15:48.837Z,314.88
2023-03-21T15:18:27.371Z,319.58
2023-03-21T15:21:00.671Z,332.05
2023-03-21T15:23:40.666Z,334.35
2023-03-21T15:26:14.028Z,323.67
2023-03-21T15:28:44.419Z,351.00
2023-03-21T15:31:19.808Z,317.05
2023-03-21T15:33:49.684Z,314.08
2023-03-21T15:36:27.090Z,326.58
2023-03-21T15:38:56.717Z,319.98
2023-03-21T15:41:25.224Z,305.15
2023-03-21T15:44:06.657Z,318.90
2023-03-21T15:46:49.710Z,381.48
2023-03-21T15:49:23.132Z,327.70
2023-03-21T15:52:12.919Z,310.80
2023-03-21T15:54:48.501Z,391.80
2023-03-21T15:57:33.346Z,363.37
